createdAt,value
2023-01-26T00:07:58.445Z,89.28
2023-01-26T00:23:00.408Z,89.46
2023-01-26T00:38:02.463Z,89.65
2023-01-26T00:53:04.398Z,90.12
2023-01-26T01:08:06.487Z,89.93
2023-01-26T01:23:08.423Z,90.77
2023-01-26T01:38:10.465Z,91.13
2023-01-26T01:53:24.810Z,91.36
2023-01-26T02:08:36.852Z,91.67
2023-01-26T02:23:56.194Z,91.17
2023-01-26T02:39:19.503Z,91.57
2023-01-26T02:54:40.087Z,91.43
2023-01-26T03:09:42.045Z,91.18
2023-01-26T03:25:02.988Z,91.21
2023-01-26T03:40:24.345Z,91.35
2023-01-26T03:55:44.664Z,91.45
2023-01-26T04:10:46.765Z,91.27
2023-01-26T04:25:49.442Z,91.05
2023-01-26T04:40:54.994Z,91.08
2023-01-26T04:55:56.964Z,91.27
2023-01-26T05:10:59.045Z,91.13
2023-01-26T05:26:01.063Z,91.03
2023-01-26T05:41:03.062Z,90.90
2023-01-26T05:56:05.304Z,90.54
2023-01-26T06:11:07.242Z,90.58
2023-01-26T06:26:10.866Z,90.87
2023-01-26T06:41:13.266Z,90.83
2023-01-26T06:56:15.484Z,90.79
2023-01-26T07:11:17.628Z,90.73
2023-01-26T07:26:21.345Z,90.64
2023-01-26T07:41:23.282Z,90.48
2023-01-26T07:56:25.308Z,90.56
2023-01-26T08:11:27.322Z,90.58
2023-01-26T08:26:29.970Z,90.75
2023-01-26T08:41:33.271Z,91.34
2023-01-26T08:56:35.601Z,91.31
2023-01-26T09:11:37.557Z,91.22
2023-01-26T09:26:39.561Z,91.06
2023-01-26T09:41:58.646Z,91.25
2023-01-26T09:57:13.984Z,91.71
2023-01-26T10:12:24.743Z,91.89
2023-01-26T10:27:28.649Z,91.81
2023-01-26T10:42:33.260Z,91.79
2023-01-26T10:57:39.102Z,91.51
2023-01-26T11:12:41.176Z,91.41
2023-01-26T11:28:03.142Z,91.15
2023-01-26T11:43:07.285Z,90.77
2023-01-26T11:58:24.450Z,90.62
2023-01-26T12:13:45.444Z,90.85
2023-01-26T12:29:10.476Z,90.40
2023-01-26T12:44:37.186Z,90.02
2023-01-26T12:59:48.596Z,89.80
2023-01-26T13:14:50.887Z,89.44
2023-01-26T13:29:57.350Z,89.13
2023-01-26T13:45:14.650Z,89.27
2023-01-26T14:00:17.549Z,89.31
2023-01-26T14:15:24.488Z,89.36
2023-01-26T14:30:28.179Z,89.63
2023-01-26T14:45:32.476Z,89.49
2023-01-26T15:00:36.630Z,90.51
2023-01-26T15:16:00.341Z,91.01
2023-01-26T15:31:02.744Z,90.68
2023-01-26T15:46:04.809Z,91.57
2023-01-26T16:01:08.352Z,91.70
2023-01-26T16:16:11.127Z,91.51
2023-01-26T16:31:23.357Z,91.99
2023-01-26T16:46:26.710Z,92.22
2023-01-26T17:01:34.035Z,91.78
2023-01-26T17:16:37.226Z,91.79
2023-01-26T17:31:39.280Z,91.79
2023-01-26T17:46:41.267Z,91.90
2023-01-26T18:01:43.345Z,91.59
2023-01-26T18:16:45.319Z,91.40
2023-01-26T18:31:48.317Z,91.23
2023-01-26T18:46:50.238Z,90.64
2023-01-26T19:01:52.152Z,90.29
2023-01-26T19:16:54.251Z,90.60
2023-01-26T19:31:56.299Z,90.30
2023-01-26T19:46:58.309Z,90.69
2023-01-26T20:02:00.233Z,90.66
2023-01-26T20:17:02.931Z,90.75
2023-01-26T20:32:05.009Z,90.38
2023-01-26T20:47:07.612Z,90.53
2023-01-26T21:02:14.758Z,90.37
2023-01-26T21:17:17.701Z,90.21
2023-01-26T21:32:19.616Z,89.90
2023-01-26T21:47:21.510Z,90.08
2023-01-26T22:02:23.742Z,89.86
2023-01-26T22:17:25.739Z,89.70
2023-01-26T22:32:27.634Z,90.03
2023-01-26T22:47:29.578Z,89.70
2023-01-26T23:02:31.546Z,89.43
2023-01-26T23:17:33.410Z,89.38
2023-01-26T23:32:35.363Z,89.49
2023-01-26T23:47:37.450Z,89.21
